Time;durP1;ratioP1;P1;durP2;ratioP2;P2;SDS_P1;SDS_P2;PMS_P1;PMS_P2;Temp;Humidity;BMP_temperature;BMP_pressure;BME280_temperature;BME280_humidity;BME280_pressure;Samples;Min_cycle;Max_cycle;Signal;HPM_P1;HPM_P2
2022/12/11 00:01:36;;;;;;;36.10;32.70;;;;;;;-5.82;100.00;101250.69;5033322;28;20436;-54
2022/12/11 00:04:04;;;;;;;36.77;33.10;;;;;;;-5.83;100.00;101243.84;5033030;28;20817;-50
2022/12/11 00:06:32;;;;;;;36.93;33.63;;;;;;;-5.86;100.00;101246.63;5033024;28;20566;-50
2022/12/11 00:08:59;;;;;;;33.77;31.00;;;;;;;-5.87;100.00;101250.13;5033383;28;20428;-56
2022/12/11 00:11:27;;;;;;;33.50;30.80;;;;;;;-5.90;100.00;101239.91;5033257;28;20526;-52
2022/12/11 00:13:55;;;;;;;31.57;28.90;;;;;;;-5.91;100.00;101242.59;5033029;28;20456;-51
2022/12/11 00:16:22;;;;;;;34.37;30.97;;;;;;;-5.93;100.00;101239.22;5033055;28;20464;-52
2022/12/11 00:18:55;;;;;;;33.43;30.17;;;;;;;-5.92;100.00;101246.94;5033303;28;20538;-51
2022/12/11 00:21:23;;;;;;;36.40;33.10;;;;;;;-5.92;100.00;101251.28;5033365;28;20428;-51
2022/12/11 00:23:50;;;;;;;36.87;33.40;;;;;;;-5.91;100.00;101245.19;5033328;28;20586;-52
2022/12/11 00:26:18;;;;;;;34.83;31.30;;;;;;;-5.94;100.00;101245.34;5032540;28;20456;-53
2022/12/11 00:28:46;;;;;;;35.50;32.37;;;;;;;-5.99;100.00;101247.31;5033256;28;20438;-48
2022/12/11 00:31:17;;;;;;;37.10;33.37;;;;;;;-6.03;100.00;101240.63;5032551;28;20444;-48
2022/12/11 00:33:47;;;;;;;35.00;31.67;;;;;;;-6.06;100.00;101241.59;5032383;28;20498;-47
2022/12/11 00:36:19;;;;;;;35.17;32.17;;;;;;;-6.07;100.00;101233.91;5032042;28;21031;-53
2022/12/11 00:38:47;;;;;;;34.40;31.37;;;;;;;-6.09;100.00;101243.53;5032352;28;20476;-50
2022/12/11 00:41:15;;;;;;;35.60;32.33;;;;;;;-6.11;100.00;101235.81;5032577;28;20530;-54
2022/12/11 00:43:43;;;;;;;35.87;32.43;;;;;;;-6.12;100.00;101241.91;5032118;28;20456;-48
2022/12/11 00:46:11;;;;;;;36.80;33.63;;;;;;;-6.14;100.00;101237.72;5031900;28;20471;-52
2022/12/11 00:48:39;;;;;;;35.30;32.37;;;;;;;-6.18;100.00;101227.50;5032201;28;20430;-50
2022/12/11 00:51:07;;;;;;;34.93;31.70;;;;;;;-6.18;100.00;101221.47;5032221;28;20444;-50
2022/12/11 00:53:37;;;;;;;33.80;30.83;;;;;;;-6.19;100.00;101225.84;5031830;28;20448;-50
2022/12/11 00:56:10;;;;;;;33.80;30.90;;;;;;;-6.18;100.00;101230.09;5031682;28;20561;-47
2022/12/11 00:58:37;;;;;;;34.73;32.10;;;;;;;-6.18;100.00;101224.91;5032179;28;20836;-47
2022/12/11 01:01:07;;;;;;;35.90;32.50;;;;;;;-6.20;100.00;101224.16;5031606;28;20442;-48
2022/12/11 01:03:35;;;;;;;32.93;30.23;;;;;;;-6.22;100.00;101215.63;5031949;28;20448;-50
2022/12/11 01:06:05;;;;;;;37.03;33.63;;;;;;;-6.24;100.00;101220.03;5031533;28;20455;-48
2022/12/11 01:08:33;;;;;;;37.47;33.97;;;;;;;-6.25;100.00;101222.72;5032186;28;20428;-44
2022/12/11 01:11:08;;;;;;;37.33;34.03;;;;;;;-6.27;100.00;101222.78;5032051;28;20447;-47
2022/12/11 01:13:35;;;;;;;38.07;34.33;;;;;;;-6.26;100.00;101223.63;5031672;28;20452;-50
2022/12/11 01:16:06;;;;;;;38.23;34.60;;;;;;;-6.28;100.00;101220.28;5031404;28;20460;-48
2022/12/11 01:18:34;;;;;;;38.37;34.67;;;;;;;-6.28;100.00;101217.69;5032057;28;20480;-50
2022/12/11 01:21:06;;;;;;;39.37;35.50;;;;;;;-6.29;100.00;101216.00;5031976;28;20797;-50
2022/12/11 01:23:33;;;;;;;36.80;33.50;;;;;;;-6.31;100.00;101217.84;5031496;28;20472;-49
2022/12/11 01:26:07;;;;;;;37.67;34.07;;;;;;;-6.31;100.00;101217.84;5031336;28;20467;-47
2022/12/11 01:28:35;;;;;;;39.83;36.03;;;;;;;-6.33;100.00;101224.88;5031684;28;20424;-49
2022/12/11 01:31:08;;;;;;;38.67;35.23;;;;;;;-6.33;100.00;101225.69;5031548;28;20440;-46
2022/12/11 01:33:36;;;;;;;36.10;33.10;;;;;;;-6.34;100.00;101226.63;5031365;28;20456;-45
2022/12/11 01:36:07;;;;;;;37.03;33.60;;;;;;;-6.33;100.00;101227.47;5031108;28;20478;-47
2022/12/11 01:38:35;;;;;;;38.23;34.30;;;;;;;-6.32;100.00;101226.53;5031748;28;20479;-45
2022/12/11 01:41:03;;;;;;;37.07;33.63;;;;;;;-6.34;100.00;101225.78;5031601;28;20894;-45
2022/12/11 01:43:32;;;;;;;38.27;34.63;;;;;;;-6.35;100.00;101222.34;5031240;28;20458;-46
2022/12/11 01:46:00;;;;;;;34.47;31.33;;;;;;;-6.37;100.00;101224.19;5031068;28;20466;-48
2022/12/11 01:48:31;;;;;;;37.20;33.47;;;;;;;-6.41;100.00;101217.44;5031635;28;20439;-47
2022/12/11 01:51:04;;;;;;;38.63;34.93;;;;;;;-6.41;100.00;101217.44;5053001;22;20483;-49
2022/12/11 01:53:35;;;;;;;37.80;34.03;;;;;;;-6.45;100.00;101223.69;5051240;28;21174;-46
2022/12/11 01:56:04;;;;;;;35.73;32.23;;;;;;;-6.44;100.00;101220.19;5050831;28;20470;-46
2022/12/11 01:58:37;;;;;;;34.43;31.23;;;;;;;-6.44;100.00;101222.78;5036951;28;20475;-45
2022/12/11 02:01:04;;;;;;;36.47;33.03;;;;;;;-6.46;100.00;101219.44;5031419;28;20460;-46
2022/12/11 02:03:32;;;;;;;37.30;33.80;;;;;;;-6.46;100.00;101221.19;5031363;28;20482;-47
2022/12/11 02:06:00;;;;;;;36.63;32.97;;;;;;;-6.47;100.00;101219.50;5031009;28;20475;-46
2022/12/11 02:08:29;;;;;;;36.23;32.33;;;;;;;-6.48;100.00;101220.44;5031824;28;20436;-48
2022/12/11 02:11:06;;;;;;;37.37;33.83;;;;;;;-6.50;100.00;101204.09;5031635;28;20825;-48
2022/12/11 02:13:44;;;;;;;36.93;33.43;;;;;;;-6.52;100.00;101216.31;5033086;28;20800;-46
2022/12/11 02:16:21;;;;;;;35.53;32.43;;;;;;;-6.52;100.00;101218.91;5034903;28;20832;-47
2022/12/11 02:18:57;;;;;;;36.10;32.83;;;;;;;-6.55;100.00;101217.31;5035018;28;20519;-47
2022/12/11 02:21:28;;;;;;;37.43;33.93;;;;;;;-6.56;100.00;101210.44;5035239;28;20463;-46
2022/12/11 02:24:22;;;;;;;35.83;32.17;;;;;;;-6.57;100.00;101202.75;5034920;28;20428;-46
2022/12/11 02:27:11;;;;;;;38.60;34.83;;;;;;;-6.58;100.00;101204.50;5034745;28;20889;-49
2022/12/11 02:29:48;;;;;;;37.40;33.77;;;;;;;-6.61;100.00;101215.03;5035030;28;20439;-50
2022/12/11 02:32:21;;;;;;;38.27;34.30;;;;;;;-6.63;100.00;101214.25;5034971;28;21003;-48
2022/12/11 02:34:55;;;;;;;37.77;33.90;;;;;;;-6.65;100.00;101212.66;5035014;28;20519;-50
2022/12/11 02:37:26;;;;;;;39.73;35.43;;;;;;;-6.68;100.00;101224.00;5034411;28;20467;-50
2022/12/11 02:39:56;;;;;;;36.33;32.90;;;;;;;-6.72;100.00;101222.50;5034998;28;20478;-47
2022/12/11 02:42:29;;;;;;;34.63;31.47;;;;;;;-6.72;100.00;101217.31;5034713;28;20999;-47
2022/12/11 02:45:00;;;;;;;35.33;32.03;;;;;;;-6.76;100.00;101218.38;5034533;28;20435;-48
2022/12/11 02:47:30;;;;;;;39.20;35.13;;;;;;;-6.77;100.00;101214.09;5024563;28;20467;-50
2022/12/11 02:50:01;;;;;;;37.17;33.97;;;;;;;-6.78;100.00;101222.81;5034451;28;20516;-47
2022/12/11 02:52:32;;;;;;;36.07;32.80;;;;;;;-6.80;100.00;101215.09;5034402;28;20842;-48
2022/12/11 02:55:02;;;;;;;36.60;33.10;;;;;;;-6.81;100.00;101212.59;5038604;28;20429;-48
2022/12/11 02:57:35;;;;;;;35.37;31.73;;;;;;;-6.81;100.00;101212.59;5054084;28;20857;-47
2022/12/11 03:00:06;;;;;;;36.30;32.90;;;;;;;-6.82;100.00;101206.56;5054333;28;20537;-50
2022/12/11 03:02:34;;;;;;;37.20;33.67;;;;;;;-6.80;100.00;101207.31;5054394;28;20431;-48
2022/12/11 03:05:01;;;;;;;37.90;34.33;;;;;;;-6.78;100.00;101205.47;5053772;28;21018;-47
2022/12/11 03:07:33;;;;;;;37.70;33.90;;;;;;;-6.74;100.00;101208.75;5054279;28;20534;-50
2022/12/11 03:10:01;;;;;;;34.73;31.17;;;;;;;-6.69;100.00;101211.97;5054202;28;20426;-48
2022/12/11 03:12:31;;;;;;;36.77;32.77;;;;;;;-6.64;100.00;101207.41;5053981;28;20497;-47
2022/12/11 03:15:01;;;;;;;37.87;33.60;;;;;;;-6.61;100.00;101204.66;5053740;28;20437;-48
2022/12/11 03:17:35;;;;;;;36.80;33.50;;;;;;;-6.59;100.00;101208.00;5043653;28;20455;-48
2022/12/11 03:20:10;;;;;;;38.17;34.07;;;;;;;-6.59;100.00;101207.16;5054125;28;20466;-50
2022/12/11 03:22:42;;;;;;;37.30;33.37;;;;;;;-6.58;100.00;101204.50;5054026;28;20431;-48
2022/12/11 03:25:17;;;;;;;37.47;33.77;;;;;;;-6.57;100.00;101210.53;5052795;28;20431;-46
2022/12/11 03:27:50;;;;;;;36.40;33.00;;;;;;;-6.58;100.00;101208.84;5053766;28;20432;-46
2022/12/11 03:30:19;;;;;;;38.33;34.33;;;;;;;-6.56;100.00;101207.00;5053927;28;20434;-47
2022/12/11 03:32:51;;;;;;;35.13;32.13;;;;;;;-6.59;100.00;101197.63;5053805;28;20801;-47
2022/12/11 03:35:24;;;;;;;33.07;30.27;;;;;;;-6.59;100.00;101199.38;5053116;28;20432;-48
2022/12/11 03:37:54;;;;;;;35.60;32.43;;;;;;;-6.59;100.00;101202.81;5053565;28;20442;-47
2022/12/11 03:40:24;;;;;;;35.30;32.00;;;;;;;-6.59;100.00;101199.38;5053451;28;20471;-48
2022/12/11 03:42:56;;;;;;;35.60;32.10;;;;;;;-6.56;100.00;101204.41;5053659;28;20427;-50
2022/12/11 03:45:25;;;;;;;38.03;34.60;;;;;;;-6.50;100.00;101186.78;5053073;28;20452;-47
2022/12/11 03:47:56;;;;;;;36.20;33.07;;;;;;;-6.45;100.00;101191.75;5053516;28;20439;-50
2022/12/11 03:50:28;;;;;;;37.13;33.37;;;;;;;-6.37;100.00;101187.84;5053120;28;20423;-47
2022/12/11 03:52:57;;;;;;;37.80;34.33;;;;;;;-6.28;100.00;101189.13;5053647;28;20423;-49
2022/12/11 03:55:27;;;;;;;35.07;31.83;;;;;;;-6.19;100.00;101189.50;5053877;28;20455;-46
2022/12/11 03:57:55;;;;;;;36.97;33.70;;;;;;;-6.11;100.00;101186.50;5053325;28;20427;-51
2022/12/11 04:00:23;;;;;;;39.10;35.03;;;;;;;-6.03;100.00;101193.91;5053123;28;20475;-46
2022/12/11 04:05:41;;;;;;;37.90;34.67;;;;;;;-5.84;100.00;101194.56;5053027;28;20943;-47
2022/12/11 04:08:09;;;;;;;39.17;35.20;;;;;;;-5.75;100.00;101192.31;5053157;28;20439;-45
2022/12/11 04:10:36;;;;;;;36.30;33.23;;;;;;;-5.63;100.00;101194.25;5053075;28;20466;-45
2022/12/11 04:13:04;;;;;;;37.43;33.80;;;;;;;-5.51;100.00;101199.69;5053015;28;20493;-46
2022/12/11 04:15:31;;;;;;;38.63;35.10;;;;;;;-5.45;100.00;101195.00;5052306;28;20467;-46
2022/12/11 04:26:17;;;;;;;36.93;33.47;;;;;;;-5.05;100.00;101193.66;5052343;28;20463;-46
2022/12/11 04:28:47;;;;;;;41.07;37.10;;;;;;;-4.96;100.00;101198.34;5052894;28;20515;-48
2022/12/11 04:31:18;;;;;;;41.00;37.13;;;;;;;-4.90;100.00;101197.97;5052748;28;20451;-46
2022/12/11 04:33:46;;;;;;;40.67;37.13;;;;;;;-4.80;100.00;101195.66;5052695;28;20431;-49
2022/12/11 04:36:16;;;;;;;40.43;36.53;;;;;;;-4.74;100.00;101193.56;5051392;28;20472;-48
2022/12/11 04:38:43;;;;;;;42.03;38.17;;;;;;;-4.65;100.00;101200.00;5052509;28;20435;-48
2022/12/11 04:41:13;;;;;;;40.80;37.27;;;;;;;-4.57;100.00;101200.41;5052545;28;20486;-51
2022/12/11 04:43:44;;;;;;;44.50;40.30;;;;;;;-4.50;100.00;101214.72;5052517;28;20427;-47
2022/12/11 04:46:13;;;;;;;44.43;39.83;;;;;;;-4.42;100.00;101206.47;5051978;28;20554;-48
2022/12/11 04:48:41;;;;;;;43.60;39.40;;;;;;;-4.34;100.00;101204.25;5052165;28;20439;-46
2022/12/11 04:51:10;;;;;;;41.97;37.77;;;;;;;-4.26;100.00;101204.63;5052199;28;20467;-45
2022/12/11 04:53:39;;;;;;;43.47;39.60;;;;;;;-4.21;100.00;101208.63;5051954;28;20445;-46
2022/12/11 04:56:07;;;;;;;41.43;37.80;;;;;;;-4.12;100.00;101207.28;5052802;28;20458;-47
2022/12/11 04:58:35;;;;;;;40.70;37.30;;;;;;;-4.05;100.00;101204.19;5052103;28;20428;-47
2022/12/11 05:01:07;;;;;;;43.60;39.03;;;;;;;-4.00;100.00;101215.16;5051975;28;20485;-47
2022/12/11 05:03:35;;;;;;;43.67;39.30;;;;;;;-3.93;100.00;101207.81;5051870;28;20526;-47
2022/12/11 05:06:03;;;;;;;40.33;36.73;;;;;;;-3.87;100.00;101199.63;5051715;28;20526;-49
2022/12/11 05:08:31;;;;;;;42.40;38.37;;;;;;;-3.83;100.00;101198.53;5052050;28;21037;-47
2022/12/11 05:11:03;;;;;;;39.00;35.43;;;;;;;-3.80;100.00;101203.56;5052035;28;20793;-49
2022/12/11 05:13:32;;;;;;;38.80;35.20;;;;;;;-3.77;100.00;101192.94;5051743;28;20770;-47
2022/12/11 05:16:00;;;;;;;39.23;35.80;;;;;;;-3.75;100.00;101192.81;5051348;28;20465;-46
2022/12/11 05:18:27;;;;;;;42.00;38.30;;;;;;;-3.72;100.00;101187.44;5051968;28;20509;-47
2022/12/11 05:20:56;;;;;;;41.10;37.30;;;;;;;-3.69;100.00;101187.25;5051651;28;20983;-48
2022/12/11 05:23:24;;;;;;;40.97;37.20;;;;;;;-3.66;100.00;101189.66;5051629;28;20442;-47
2022/12/11 05:25:53;;;;;;;39.63;36.23;;;;;;;-3.64;100.00;101193.84;5051273;28;20469;-47
2022/12/11 05:28:23;;;;;;;42.10;38.10;;;;;;;-3.66;100.00;101187.06;5051649;28;20431;-47
2022/12/11 05:30:55;;;;;;;41.83;38.23;;;;;;;-3.68;100.00;101181.94;5051860;28;20451;-46
2022/12/11 05:33:23;;;;;;;40.07;36.37;;;;;;;-3.70;100.00;101182.97;5051754;28;20847;-47
2022/12/11 05:35:51;;;;;;;40.03;36.50;;;;;;;-3.77;100.00;101185.13;5051298;28;20467;-49
2022/12/11 05:38:19;;;;;;;38.03;34.53;;;;;;;-3.82;100.00;101175.91;5051707;28;20423;-47
2022/12/11 05:40:55;;;;;;;38.60;35.20;;;;;;;-3.92;100.00;101181.69;5051280;28;20485;-48
2022/12/11 05:43:24;;;;;;;43.00;38.73;;;;;;;-4.02;100.00;101175.34;5051447;28;20433;-46
2022/12/11 05:45:52;;;;;;;46.77;42.13;;;;;;;-4.12;100.00;101168.22;5051110;28;20463;-46
2022/12/11 05:48:20;;;;;;;49.87;44.13;;;;;;;-4.24;100.00;101174.16;5054768;28;20525;-46
2022/12/11 05:50:56;;;;;;;45.93;41.70;;;;;;;-4.37;100.00;101176.66;5055552;28;20532;-45
2022/12/11 05:53:24;;;;;;;49.17;44.37;;;;;;;-4.49;100.00;101179.97;5055280;28;20441;-50
2022/12/11 05:55:52;;;;;;;54.07;48.20;;;;;;;-4.59;100.00;101178.81;5056422;28;20459;-48
2022/12/11 05:58:20;;;;;;;43.77;39.80;;;;;;;-4.69;100.00;101180.31;5055580;28;20781;-46
2022/12/11 06:00:49;;;;;;;47.77;43.07;;;;;;;-4.80;100.00;101182.66;5055404;28;20478;-47
2022/12/11 06:03:17;;;;;;;45.57;41.13;;;;;;;-4.89;100.00;101181.44;5055225;28;20958;-45
2022/12/11 06:05:44;;;;;;;42.67;38.47;;;;;;;-4.99;100.00;101187.25;5054818;28;20513;-48
2022/12/11 06:08:12;;;;;;;40.83;37.10;;;;;;;-5.09;100.00;101184.34;5055605;28;20426;-50
2022/12/11 06:10:45;;;;;;;41.07;36.87;;;;;;;-5.17;100.00;101184.78;5055147;28;20976;-46
2022/12/11 06:13:12;;;;;;;38.10;34.73;;;;;;;-5.25;100.00;101178.31;5055051;28;20427;-45
2022/12/11 06:15:40;;;;;;;39.37;35.87;;;;;;;-5.31;100.00;101178.66;5054694;28;20466;-46
2022/12/11 06:18:09;;;;;;;49.70;41.87;;;;;;;-5.39;100.00;101181.69;5055116;28;20423;-48
2022/12/11 06:20:37;;;;;;;46.43;41.53;;;;;;;-5.46;100.00;101177.72;5054929;28;20475;-49
2022/12/11 06:23:05;;;;;;;45.03;40.43;;;;;;;-5.51;100.00;101174.56;5055063;28;20424;-46
2022/12/11 06:25:33;;;;;;;39.43;35.70;;;;;;;-5.57;100.00;101187.03;5054593;28;20457;-49
2022/12/11 06:28:01;;;;;;;39.27;35.87;;;;;;;-5.64;100.00;101189.13;5054924;28;20420;-47
2022/12/11 06:30:29;;;;;;;39.40;35.63;;;;;;;-5.70;100.00;101182.50;5052599;28;20518;-47
2022/12/11 06:33:06;;;;;;;39.17;35.40;;;;;;;-5.75;100.00;101186.28;5053360;28;20443;-46
2022/12/11 06:35:35;;;;;;;37.37;33.57;;;;;;;-5.80;100.00;101193.47;5052915;28;20457;-48
2022/12/11 06:38:09;;;;;;;36.67;33.37;;;;;;;-5.84;100.00;101199.75;5053444;28;20484;-45
2022/12/11 06:40:37;;;;;;;39.77;35.57;;;;;;;-5.88;100.00;101188.72;5054319;28;20482;-50
2022/12/11 06:43:04;;;;;;;36.47;33.47;;;;;;;-5.94;100.00;101183.03;5054608;28;20530;-48
2022/12/11 06:45:32;;;;;;;37.43;34.20;;;;;;;-5.97;100.00;101188.38;5053897;28;20459;-47
2022/12/11 06:48:00;;;;;;;39.47;35.67;;;;;;;-6.01;100.00;101195.50;5054688;28;20431;-50
2022/12/11 06:50:27;;;;;;;38.93;34.93;;;;;;;-6.06;100.00;101188.88;5053742;28;20455;-47
2022/12/11 06:52:56;;;;;;;41.47;35.73;;;;;;;-6.10;100.00;101188.19;5054075;28;20431;-47
2022/12/11 06:55:24;;;;;;;37.20;33.53;;;;;;;-6.13;100.00;101195.28;5054141;28;20459;-45
2022/12/11 06:57:52;;;;;;;41.03;37.40;;;;;;;-6.15;100.00;101191.94;5053934;28;20435;-45
2022/12/11 07:00:20;;;;;;;40.77;36.67;;;;;;;-6.18;100.00;101195.50;5050908;28;20435;-48
2022/12/11 07:02:47;;;;;;;46.80;41.70;;;;;;;-6.21;100.00;101193.06;5053655;28;20523;-48
2022/12/11 07:05:15;;;;;;;40.53;36.33;;;;;;;-6.24;100.00;101204.44;5052833;28;20439;-47
2022/12/11 07:07:43;;;;;;;37.90;34.53;;;;;;;-6.26;100.00;101208.88;5053792;28;20431;-47
2022/12/11 07:10:12;;;;;;;40.30;36.50;;;;;;;-6.31;100.00;101195.31;5053599;28;20459;-46
2022/12/11 07:12:39;;;;;;;36.07;33.07;;;;;;;-6.32;100.00;101205.75;5053441;28;20518;-47
2022/12/11 07:15:08;;;;;;;38.17;34.50;;;;;;;-6.36;100.00;101212.03;5052947;28;20442;-47
2022/12/11 07:17:36;;;;;;;38.20;34.60;;;;;;;-6.40;100.00;101218.31;5053344;28;20459;-46
2022/12/11 07:20:05;;;;;;;38.50;34.13;;;;;;;-6.40;100.00;101216.56;5053619;28;20431;-47
2022/12/11 07:22:33;;;;;;;35.77;32.47;;;;;;;-6.40;100.00;101221.75;5053873;28;20475;-46
2022/12/11 07:25:00;;;;;;;36.53;33.47;;;;;;;-6.39;100.00;101230.38;5052809;28;20436;-48
2022/12/11 07:27:29;;;;;;;35.73;32.73;;;;;;;-6.41;100.00;101217.44;5053138;28;20554;-47
2022/12/11 07:29:57;;;;;;;35.73;32.53;;;;;;;-6.43;100.00;101226.25;5043802;28;20439;-46
2022/12/11 07:32:25;;;;;;;39.20;34.93;;;;;;;-6.44;100.00;101225.38;5053006;28;20455;-47
2022/12/11 07:34:53;;;;;;;38.83;35.03;;;;;;;-6.46;100.00;101229.84;5051156;28;20511;-48
2022/12/11 07:37:21;;;;;;;34.90;31.90;;;;;;;-6.45;100.00;101222.88;5051174;28;20999;-46
2022/12/11 07:39:48;;;;;;;37.07;33.27;;;;;;;-6.45;100.00;101225.47;5052370;28;20428;-48
2022/12/11 07:42:16;;;;;;;40.67;36.73;;;;;;;-6.42;100.00;101228.75;5053121;28;20479;-46
2022/12/11 07:44:45;;;;;;;41.53;37.10;;;;;;;-6.40;100.00;101215.69;5052846;28;20951;-47
2022/12/11 07:47:13;;;;;;;38.10;34.20;;;;;;;-6.39;100.00;101215.63;5052079;28;20915;-47
2022/12/11 07:49:40;;;;;;;35.40;32.27;;;;;;;-6.39;100.00;101218.19;5052864;28;20439;-47
2022/12/11 07:52:08;;;;;;;35.60;31.90;;;;;;;-6.38;100.00;101214.69;5050769;28;20461;-47
2022/12/11 07:54:36;;;;;;;37.90;34.00;;;;;;;-6.35;100.00;101205.91;5052812;28;20497;-45
2022/12/11 07:57:05;;;;;;;36.80;33.20;;;;;;;-6.33;100.00;101201.50;5051072;28;20460;-47
2022/12/11 07:59:41;;;;;;;37.57;34.00;;;;;;;-6.31;100.00;101205.69;5046563;28;20492;-48
2022/12/11 08:02:11;;;;;;;36.97;33.40;;;;;;;-6.26;100.00;101205.44;5051929;28;20585;-49
2022/12/11 08:04:39;;;;;;;37.40;33.80;;;;;;;-6.23;100.00;101213.94;5052774;28;20423;-47
2022/12/11 08:07:06;;;;;;;36.63;33.10;;;;;;;-6.21;100.00;101209.47;5051979;28;20547;-51
2022/12/11 08:09:34;;;;;;;35.80;32.23;;;;;;;-6.19;100.00;101210.25;5052539;28;20952;-48
2022/12/11 08:12:02;;;;;;;35.50;32.17;;;;;;;-6.15;100.00;101213.53;5051681;28;20451;-46
2022/12/11 08:14:30;;;;;;;35.10;31.57;;;;;;;-6.14;100.00;101217.81;5052340;28;20804;-48
2022/12/11 08:16:59;;;;;;;38.27;34.30;;;;;;;-6.09;100.00;101215.00;5051114;28;20461;-46
2022/12/11 08:19:28;;;;;;;34.20;30.90;;;;;;;-6.09;100.00;101218.41;5052478;28;20427;-48
2022/12/11 08:21:55;;;;;;;37.57;33.60;;;;;;;-6.04;100.00;101213.81;5052401;28;20482;-48
2022/12/11 08:24:23;;;;;;;40.93;36.20;;;;;;;-5.98;100.00;101208.31;5051520;28;20474;-46
2022/12/11 08:26:51;;;;;;;40.27;36.30;;;;;;;-5.91;100.00;101221.81;5051239;28;20459;-46
2022/12/11 08:29:19;;;;;;;36.50;33.43;;;;;;;-5.86;100.00;101214.63;5052619;28;20450;-49
2022/12/11 08:31:46;;;;;;;39.13;35.20;;;;;;;-5.82;100.00;101218.69;5051569;28;20505;-46
2022/12/11 08:34:14;;;;;;;41.23;36.03;;;;;;;-5.75;100.00;101223.47;5049704;28;20431;-48
2022/12/11 08:36:43;;;;;;;45.67;40.73;;;;;;;-5.68;100.00;101224.00;5051544;28;20482;-48
2022/12/11 08:39:11;;;;;;;42.47;37.80;;;;;;;-5.59;100.00;101226.09;5052105;28;20438;-45
2022/12/11 08:41:39;;;;;;;43.67;39.20;;;;;;;-5.51;100.00;101231.72;5052162;28;20509;-50
2022/12/11 08:44:11;;;;;;;39.97;36.10;;;;;;;-5.43;100.00;101232.13;5050869;28;20436;-48
2022/12/11 08:46:43;;;;;;;42.10;37.93;;;;;;;-5.31;100.00;101236.66;5051489;28;20494;-48
2022/12/11 08:49:11;;;;;;;42.10;37.53;;;;;;;-5.19;100.00;101236.00;5051800;28;20522;-52
2022/12/11 08:51:38;;;;;;;39.40;35.87;;;;;;;-5.08;100.00;101236.25;5049693;28;20459;-47
2022/12/11 08:54:09;;;;;;;41.90;37.83;;;;;;;-4.96;100.00;101234.75;5051020;28;20442;-49
2022/12/11 08:56:37;;;;;;;54.50;44.63;;;;;;;-4.87;100.00;101231.63;5051883;28;20504;-48
2022/12/11 08:59:05;;;;;;;42.77;38.27;;;;;;;-4.78;100.00;101231.06;5051446;28;20527;-48
2022/12/11 09:01:33;;;;;;;51.30;45.83;;;;;;;-4.67;100.00;101226.13;5051313;28;20467;-50
2022/12/11 09:04:00;;;;;;;47.90;43.07;;;;;;;-4.55;100.00;101225.41;5051187;28;20432;-48
2022/12/11 09:06:29;;;;;;;46.60;42.13;;;;;;;-4.44;100.00;101209.16;5047855;28;20475;-50
2022/12/11 09:08:59;;;;;;;46.37;41.97;;;;;;;-4.34;100.00;101212.91;5050061;28;20431;-47
2022/12/11 09:11:31;;;;;;;44.40;39.67;;;;;;;-4.24;100.00;101218.41;5051214;28;20462;-48
2022/12/11 09:14:00;;;;;;;44.97;40.27;;;;;;;-4.14;100.00;101216.94;5050450;28;20427;-46
2022/12/11 09:16:38;;;;;;;43.20;39.23;;;;;;;-4.04;100.00;101213.69;5050366;28;20457;-45
2022/12/11 09:19:07;;;;;;;45.93;40.97;;;;;;;-3.96;100.00;101215.81;5050757;28;20440;-47
2022/12/11 09:21:35;;;;;;;46.80;42.30;;;;;;;-3.86;100.00;101221.31;5050477;28;20455;-51
2022/12/11 09:24:04;;;;;;;46.53;41.47;;;;;;;-3.73;100.00;101219.66;5049901;28;20961;-48
2022/12/11 09:26:33;;;;;;;42.93;38.73;;;;;;;-3.64;100.00;101219.91;5050582;28;20460;-48
2022/12/11 09:29:02;;;;;;;42.90;38.60;;;;;;;-3.56;100.00;101214.22;5049509;28;20439;-48
2022/12/11 09:31:32;;;;;;;41.00;37.00;;;;;;;-3.49;100.00;101205.91;5047818;28;21055;-51
2022/12/11 09:34:04;;;;;;;44.13;38.80;;;;;;;-3.40;100.00;101210.56;5047402;28;20526;-48
2022/12/11 09:36:33;;;;;;;43.97;39.77;;;;;;;-3.30;100.00;101210.81;5047150;28;21167;-46
2022/12/11 09:39:01;;;;;;;44.30;39.57;;;;;;;-3.22;100.00;101205.94;5050583;28;20443;-47
2022/12/11 09:41:39;;;;;;;42.00;37.83;;;;;;;-3.15;100.00;101198.56;5050835;28;20455;-45
2022/12/11 09:44:18;;;;;;;41.93;37.47;;;;;;;-3.04;100.00;101204.78;5049766;28;20459;-47
2022/12/11 09:46:46;;;;;;;41.00;37.20;;;;;;;-2.93;100.00;101191.88;5050085;28;20463;-48
2022/12/11 09:49:24;;;;;;;41.23;37.40;;;;;;;-2.83;100.00;101189.50;5046519;28;20431;-49
2022/12/11 09:52:01;;;;;;;42.60;38.57;;;;;;;-2.74;100.00;101194.13;5046235;28;20833;-48
2022/12/11 09:54:29;;;;;;;41.93;38.03;;;;;;;-2.68;100.00;101193.72;5049747;28;20427;-47
2022/12/11 09:57:09;;;;;;;42.20;38.00;;;;;;;-2.64;100.00;101186.53;5050911;28;20486;-47
2022/12/11 09:59:42;;;;;;;42.17;38.13;;;;;;;-2.59;100.00;101195.72;5044263;28;20428;-48
2022/12/11 10:02:25;;;;;;;42.37;38.27;;;;;;;-2.51;100.00;101190.81;5047209;28;21007;-47
2022/12/11 10:05:03;;;;;;;43.37;39.37;;;;;;;-2.44;100.00;101199.09;5049621;28;20427;-51
2022/12/11 10:07:37;;;;;;;42.90;39.10;;;;;;;-2.40;100.00;101197.94;5042409;28;20808;-48
2022/12/11 10:10:17;;;;;;;42.17;38.17;;;;;;;-2.31;100.00;101202.56;5047919;28;20940;-50
2022/12/11 10:12:54;;;;;;;43.70;39.50;;;;;;;-2.26;100.00;101200.47;5052628;28;20928;-51
2022/12/11 10:15:35;;;;;;;40.57;37.00;;;;;;;-2.13;100.00;101206.53;5043204;28;20447;-49
2022/12/11 10:18:09;;;;;;;43.20;39.13;;;;;;;-2.08;100.00;101195.75;5050710;28;20435;-50
2022/12/11 10:20:41;;;;;;;39.70;35.93;;;;;;;-2.08;100.00;101186.16;5051041;28;20455;-47
2022/12/11 10:23:16;;;;;;;42.13;38.20;;;;;;;-2.01;100.00;101168.28;5051017;28;20471;-45
2022/12/11 10:25:48;;;;;;;40.30;37.07;;;;;;;-1.95;100.00;101173.09;5050673;28;20469;-51
2022/12/11 10:28:19;;;;;;;40.67;36.60;;;;;;;-1.93;100.00;101187.72;5051122;28;20438;-47
2022/12/11 10:30:50;;;;;;;39.17;36.00;;;;;;;-1.88;100.00;101177.78;5051154;28;20459;-48
2022/12/11 10:33:21;;;;;;;41.63;37.77;;;;;;;-1.79;100.00;101178.91;5050600;28;20511;-50
2022/12/11 10:35:52;;;;;;;40.77;37.30;;;;;;;-1.74;100.00;101176.81;5050862;28;20493;-45
2022/12/11 10:38:27;;;;;;;43.80;39.60;;;;;;;-1.69;100.00;101180.78;5048828;28;20454;-48
2022/12/11 10:40:58;;;;;;;42.43;38.67;;;;;;;-1.67;100.00;101174.63;5052893;28;20541;-48
2022/12/11 10:43:35;;;;;;;43.80;39.97;;;;;;;-1.57;100.00;101171.22;5053369;28;20475;-48
2022/12/11 10:46:04;;;;;;;41.47;37.73;;;;;;;-1.50;100.00;101169.03;5053560;28;20459;-48
2022/12/11 10:48:32;;;;;;;43.87;39.77;;;;;;;-1.53;100.00;101156.16;5053812;28;20435;-46
2022/12/11 10:51:02;;;;;;;41.10;37.27;;;;;;;-1.51;100.00;101168.19;5053677;28;20548;-49
2022/12/11 10:53:31;;;;;;;42.03;38.27;;;;;;;-1.49;100.00;101176.75;5052948;28;20472;-49
2022/12/11 10:55:59;;;;;;;42.30;38.60;;;;;;;-1.41;100.00;101171.00;5054513;28;20458;-48
2022/12/11 10:58:32;;;;;;;39.20;35.67;;;;;;;-1.30;100.00;101171.88;5071007;22;20487;-47
2022/12/11 11:01:08;;;;;;;39.43;35.90;;;;;;;-1.21;100.00;101155.53;5030856;28;20436;-54
2022/12/11 11:03:43;;;;;;;45.37;40.73;;;;;;;-1.16;100.00;101158.63;5033114;28;20474;-52
2022/12/11 11:06:17;;;;;;;42.20;38.17;;;;;;;-1.08;100.00;101150.25;5050778;28;20472;-53
2022/12/11 11:08:46;;;;;;;44.33;39.67;;;;;;;-1.04;100.00;101150.81;5035938;28;20460;-50
2022/12/11 11:11:26;;;;;;;43.30;38.67;;;;;;;-0.99;100.00;101156.56;5050153;28;20463;-54
2022/12/11 11:14:11;;;;;;;40.50;36.77;;;;;;;-0.92;100.00;101149.91;5037030;28;20424;-53
2022/12/11 11:16:43;;;;;;;39.60;35.87;;;;;;;-0.93;100.00;101156.13;5036333;28;20494;-53
2022/12/11 11:19:20;;;;;;;38.80;35.13;;;;;;;-0.90;100.00;101153.28;5033718;28;20467;-48
2022/12/11 11:21:51;;;;;;;46.17;41.57;;;;;;;-0.81;100.00;101140.34;5032758;28;20451;-53
2022/12/11 11:24:26;;;;;;;40.27;36.67;;;;;;;-0.77;100.00;101139.16;5036918;28;20490;-51
2022/12/11 11:26:54;;;;;;;49.10;43.23;;;;;;;-0.70;100.00;101129.91;5030210;28;20471;-49